Time;durP1;ratioP1;P1;durP2;ratioP2;P2;SDS_P1;SDS_P2;PMS_P1;PMS_P2;Temp;Humidity;BMP_temperature;BMP_pressure;BME280_temperature;BME280_humidity;BME280_pressure;Samples;Min_cycle;Max_cycle;Signal;HPM_P1;HPM_P2
2023/06/26 00:00:33;;;;;;;;;;;;;;;27.00;43.79;100699.56;5166053;28;19910;-86
2023/06/26 00:03:23;;;;;;;;;;;;;;;26.94;44.02;100697.47;5176916;28;20007;-85
2023/06/26 00:06:14;;;;;;;;;;;;;;;26.97;43.70;100694.50;5163329;28;20012;-85
2023/06/26 00:09:05;;;;;;;;;;;;;;;26.76;44.58;100691.16;5160019;28;19921;-86
2023/06/26 00:11:55;;;;;;;;;;;;;;;26.77;44.20;100693.75;5164176;28;20319;-85
2023/06/26 00:14:46;;;;;;;;;;;;;;;26.87;45.14;100693.69;5138530;28;19918;-84
2023/06/26 00:17:37;;;;;;;;;;;;;;;26.77;44.52;100692.88;5141551;28;20318;-85
2023/06/26 00:20:28;;;;;;;;;;;;;;;26.78;44.32;100694.56;5180926;28;19968;-84
2023/06/26 00:23:18;;;;;;;;;;;;;;;26.67;44.68;100693.72;5169577;28;19913;-88
2023/06/26 00:26:10;;;;;;;;;;;;;;;26.70;45.18;100693.44;5167889;28;19929;-84
2023/06/26 00:29:00;;;;;;;;;;;;;;;26.68;44.81;100695.44;5166762;28;20003;-84
2023/06/26 00:31:51;;;;;;;;;;;;;;;26.59;44.89;100695.47;5166774;28;19953;-85
2023/06/26 00:34:42;;;;;;;;;;;;;;;26.49;45.25;100695.47;5161120;28;19928;-85
2023/06/26 00:37:32;;;;;;;;;;;;;;;26.50;45.49;100686.41;5161981;28;19921;-86
2023/06/26 00:40:23;;;;;;;;;;;;;;;26.48;45.30;100685.75;5164995;28;20051;-85
2023/06/26 00:43:14;;;;;;;;;;;;;;;26.35;45.49;100692.28;5164329;28;19921;-84
2023/06/26 00:46:05;;;;;;;;;;;;;;;26.37;45.37;100692.13;5163076;28;19963;-84
2023/06/26 00:48:58;;;;;;;;;;;;;;;26.35;45.49;100694.97;5164325;28;19921;-83
2023/06/26 00:51:49;;;;;;;;;;;;;;;26.27;45.31;100684.09;5162147;28;19917;-84
2023/06/26 00:54:40;;;;;;;;;;;;;;;26.23;45.22;100682.69;5156192;28;19929;-84
2023/06/26 00:57:30;;;;;;;;;;;;;;;26.14;45.62;100683.56;5162882;28;20315;-85
2023/06/26 01:00:21;;;;;;;;;;;;;;;26.09;45.44;100681.31;5165357;28;20354;-84
2023/06/26 01:03:12;;;;;;;;;;;;;;;25.99;45.84;100683.94;5174777;28;19936;-83
2023/06/26 01:06:03;;;;;;;;;;;;;;;25.92;45.39;100682.81;5162023;28;20378;-84
2023/06/26 01:08:54;;;;;;;;;;;;;;;25.91;45.67;100673.94;5178530;28;19918;-84
2023/06/26 01:11:45;;;;;;;;;;;;;;;25.89;45.44;100675.91;5195359;28;19921;-86
2023/06/26 01:14:36;;;;;;;;;;;;;;;25.91;46.48;100670.38;5184839;28;19914;-84
2023/06/26 01:17:31;;;;;;;;;;;;;;;25.84;46.09;100669.25;5165415;28;19949;-85
2023/06/26 01:20:21;;;;;;;;;;;;;;;25.74;46.64;100670.09;5171396;28;19956;-84
2023/06/26 01:23:14;;;;;;;;;;;;;;;25.71;46.68;100675.78;5163474;28;19925;-83
2023/06/26 01:26:21;;;;;;;;;;;;;;;25.67;46.89;100668.97;5166604;28;19921;-83
2023/06/26 01:29:14;;;;;;;;;;;;;;;25.67;46.29;100668.97;5166072;28;19917;-83
2023/06/26 01:32:05;;;;;;;;;;;;;;;25.58;45.78;100661.75;5153060;28;19968;-84
2023/06/26 01:34:58;;;;;;;;;;;;;;;25.53;45.85;100655.97;5176351;28;19918;-83
2023/06/26 01:37:48;;;;;;;;;;;;;;;25.48;46.08;100669.81;5165577;28;20349;-85
2023/06/26 01:40:39;;;;;;;;;;;;;;;25.45;46.31;100660.22;5152668;28;19996;-83
2023/06/26 01:43:43;;;;;;;;;;;;;;;25.34;46.01;100668.34;5154175;28;19991;-86
2023/06/26 01:46:41;;;;;;;;;;;;;;;25.27;46.05;100667.22;5154207;28;19952;-84
2023/06/26 01:49:38;;;;;;;;;;;;;;;25.20;46.32;100660.72;5165553;28;20302;-84
2023/06/26 01:52:31;;;;;;;;;;;;;;;25.18;46.20;100668.06;5166608;28;20371;-84
2023/06/26 01:55:33;;;;;;;;;;;;;;;25.14;45.85;100670.16;5149772;28;19917;-84
2023/06/26 01:58:25;;;;;;;;;;;;;;;25.12;45.88;100681.06;5165436;28;19917;-83
2023/06/26 02:01:16;;;;;;;;;;;;;;;25.07;45.62;100675.25;5179276;28;19913;-83
2023/06/26 02:04:06;;;;;;;;;;;;;;;25.08;45.73;100679.63;5162808;28;19918;-84
2023/06/26 02:06:57;;;;;;;;;;;;;;;25.04;45.79;100678.19;5162656;28;19918;-83
2023/06/26 02:09:48;;;;;;;;;;;;;;;25.02;45.79;100684.69;5166438;28;19909;-84
2023/06/26 02:12:38;;;;;;;;;;;;;;;24.99;45.65;100678.63;5149688;28;20294;-85
2023/06/26 02:15:29;;;;;;;;;;;;;;;25.00;46.18;100682.13;5176006;28;19913;-83
2023/06/26 02:18:22;;;;;;;;;;;;;;;25.00;46.19;100676.75;5163936;28;19924;-85
2023/06/26 02:21:13;;;;;;;;;;;;;;;24.98;46.59;100689.50;5164841;28;20628;-83
2023/06/26 02:24:04;;;;;;;;;;;;;;;24.63;48.15;100701.47;5185617;28;19957;-83
2023/06/26 02:26:56;;;;;;;;;;;;;;;24.25;49.76;100708.31;5173077;28;19932;-84
2023/06/26 02:29:47;;;;;;;;;;;;;;;24.16;49.30;100705.44;5175013;28;19910;-85
2023/06/26 02:32:37;;;;;;;;;;;;;;;24.15;49.42;100703.72;5164293;28;19928;-83
2023/06/26 02:35:28;;;;;;;;;;;;;;;24.39;48.26;100707.97;5164491;28;19913;-84
2023/06/26 02:38:19;;;;;;;;;;;;;;;24.33;49.19;100712.03;5146623;28;20306;-83
2023/06/26 02:41:09;;;;;;;;;;;;;;;24.24;49.58;100706.59;5151679;28;19910;-83
2023/06/26 02:44:00;;;;;;;;;;;;;;;24.20;49.92;100711.38;5161742;28;19977;-83
2023/06/26 02:46:51;;;;;;;;;;;;;;;23.97;51.00;100710.63;5177295;28;19921;-84
2023/06/26 02:49:41;;;;;;;;;;;;;;;24.11;50.27;100713.00;5154277;28;19940;-83
2023/06/26 02:52:32;;;;;;;;;;;;;;;24.12;50.85;100714.69;5160915;28;19922;-82
2023/06/26 02:55:23;;;;;;;;;;;;;;;24.20;50.42;100728.31;5161888;28;20474;-84
2023/06/26 02:58:13;;;;;;;;;;;;;;;24.11;50.92;100733.59;5179608;28;19924;-83
2023/06/26 03:01:04;;;;;;;;;;;;;;;24.25;50.42;100740.47;5150374;28;20326;-83
2023/06/26 03:03:54;;;;;;;;;;;;;;;24.16;51.68;100742.97;5160684;28;19929;-82
2023/06/26 03:06:45;;;;;;;;;;;;;;;24.17;51.66;100750.00;5148418;28;19913;-85
2023/06/26 03:09:36;;;;;;;;;;;;;;;23.92;52.98;100758.38;5171214;28;19910;-85
2023/06/26 03:12:27;;;;;;;;;;;;;;;24.19;51.27;100755.25;5176779;28;19929;-84
2023/06/26 03:15:19;;;;;;;;;;;;;;;24.17;50.69;100747.31;5168729;28;20366;-86
2023/06/26 03:18:09;;;;;;;;;;;;;;;24.20;50.62;100749.75;5191359;28;19906;-86
2023/06/26 03:21:00;;;;;;;;;;;;;;;24.15;51.87;100759.16;5177278;28;19936;-85
2023/06/26 03:23:51;;;;;;;;;;;;;;;24.31;50.34;100746.16;5181199;28;20558;-82
2023/06/26 03:26:41;;;;;;;;;;;;;;;24.22;51.52;100748.78;5154167;28;19917;-84
2023/06/26 03:29:32;;;;;;;;;;;;;;;24.20;50.68;100752.44;5149723;28;19916;-84
2023/06/26 03:32:23;;;;;;;;;;;;;;;24.12;51.63;100749.53;5157539;28;19932;-84
2023/06/26 03:35:14;;;;;;;;;;;;;;;24.19;52.37;100745.38;5155033;28;19952;-83
2023/06/26 03:38:05;;;;;;;;;;;;;;;24.09;51.91;100755.16;5165238;28;19914;-84
2023/06/26 03:40:56;;;;;;;;;;;;;;;23.88;52.47;100749.75;5168597;28;20454;-83
2023/06/26 03:43:46;;;;;;;;;;;;;;;23.97;52.40;100757.03;5161621;28;19921;-84
2023/06/26 03:46:37;;;;;;;;;;;;;;;23.85;53.37;100760.72;5165701;28;19952;-84
2023/06/26 03:49:28;;;;;;;;;;;;;;;23.76;53.88;100758.78;5165062;28;19965;-84
2023/06/26 03:52:18;;;;;;;;;;;;;;;23.61;54.37;100760.88;5164107;28;19929;-83
2023/06/26 03:55:09;;;;;;;;;;;;;;;23.66;54.61;100766.75;5164427;28;19918;-84
2023/06/26 03:58:00;;;;;;;;;;;;;;;23.50;55.38;100777.84;5150908;28;19927;-84
2023/06/26 04:00:51;;;;;;;;;;;;;;;23.54;55.50;100777.47;5176925;28;20375;-85
2023/06/26 04:03:41;;;;;;;;;;;;;;;23.75;53.99;100774.03;5147281;28;19988;-84
2023/06/26 04:06:33;;;;;;;;;;;;;;;23.62;54.89;100786.69;5139373;28;19914;-84
2023/06/26 04:09:23;;;;;;;;;;;;;;;23.76;54.16;100783.75;5171279;28;19913;-86
2023/06/26 04:12:14;;;;;;;;;;;;;;;23.67;54.18;100795.22;5173251;28;19993;-83
2023/06/26 04:15:05;;;;;;;;;;;;;;;23.85;53.36;100796.38;5179746;28;19936;-85
2023/06/26 04:17:56;;;;;;;;;;;;;;;23.79;54.84;100809.44;5172269;28;19929;-86
2023/06/26 04:21:09;;;;;;;;;;;;;;;23.82;54.43;100812.72;5157002;28;19922;-85
2023/06/26 04:23:59;;;;;;;;;;;;;;;23.56;55.94;100807.66;5199281;28;19925;-85
2023/06/26 04:26:50;;;;;;;;;;;;;;;23.72;55.71;100814.44;5167771;28;19921;-84
2023/06/26 04:29:41;;;;;;;;;;;;;;;23.69;55.04;100812.00;5153266;28;20422;-86
2023/06/26 04:32:31;;;;;;;;;;;;;;;23.63;55.62;100813.38;5175130;28;19941;-86
2023/06/26 04:35:22;;;;;;;;;;;;;;;23.59;56.12;100814.59;5175107;28;19925;-87
2023/06/26 04:38:13;;;;;;;;;;;;;;;23.65;55.50;100813.25;5194650;28;20009;-86
2023/06/26 04:41:04;;;;;;;;;;;;;;;23.36;56.91;100813.75;5179576;28;19960;-86
2023/06/26 04:43:55;;;;;;;;;;;;;;;23.36;56.81;100819.09;5172138;28;19926;-83
2023/06/26 04:46:45;;;;;;;;;;;;;;;23.39;56.30;100816.19;5163260;28;19913;-84
2023/06/26 04:49:36;;;;;;;;;;;;;;;23.27;56.74;100823.38;5145970;28;19913;-85
2023/06/26 04:52:27;;;;;;;;;;;;;;;23.24;57.12;100827.16;5165182;28;19945;-85
2023/06/26 04:55:17;;;;;;;;;;;;;;;22.70;58.80;100833.13;5164550;28;19917;-84
2023/06/26 04:58:08;;;;;;;;;;;;;;;22.55;59.04;100830.66;5159045;28;19910;-85
2023/06/26 05:00:59;;;;;;;;;;;;;;;22.58;58.65;100830.44;5172980;28;20392;-85
2023/06/26 05:03:49;;;;;;;;;;;;;;;22.36;59.35;100835.66;5157745;28;19929;-84
2023/06/26 05:06:40;;;;;;;;;;;;;;;22.41;58.85;100846.91;5179787;28;19914;-85
2023/06/26 05:09:31;;;;;;;;;;;;;;;22.71;58.05;100841.03;5137441;28;20004;-85
2023/06/26 05:12:22;;;;;;;;;;;;;;;22.29;58.93;100838.78;5165311;28;19918;-84
2023/06/26 05:15:12;;;;;;;;;;;;;;;22.64;57.46;100837.13;5159327;28;19922;-85
2023/06/26 05:18:03;;;;;;;;;;;;;;;22.62;57.61;100853.28;5161163;28;19929;-85
2023/06/26 05:20:54;;;;;;;;;;;;;;;22.63;56.81;100855.00;5153274;28;19917;-85
2023/06/26 05:23:45;;;;;;;;;;;;;;;22.81;56.13;100861.75;5166263;28;19929;-85
2023/06/26 05:26:35;;;;;;;;;;;;;;;22.85;56.40;100864.03;5143611;28;20375;-85
2023/06/26 05:29:26;;;;;;;;;;;;;;;22.85;55.92;100868.53;5163370;28;19916;-84
2023/06/26 05:32:17;;;;;;;;;;;;;;;22.49;57.49;100871.22;5160655;28;19929;-84
2023/06/26 05:35:08;;;;;;;;;;;;;;;22.50;57.43;100872.06;5162948;28;20418;-85
2023/06/26 05:37:59;;;;;;;;;;;;;;;22.53;57.73;100875.38;5181653;28;19925;-86
2023/06/26 05:40:50;;;;;;;;;;;;;;;22.40;58.07;100875.44;5153545;28;19918;-85
2023/06/26 05:43:40;;;;;;;;;;;;;;;22.19;58.45;100877.84;5144776;28;19925;-86
2023/06/26 05:46:31;;;;;;;;;;;;;;;22.21;58.80;100870.56;5167372;28;19924;-85
2023/06/26 05:49:22;;;;;;;;;;;;;;;22.14;59.49;100880.00;5154585;28;19944;-85
2023/06/26 05:52:13;;;;;;;;;;;;;;;21.92;59.87;100884.28;5149066;28;19922;-85
2023/06/26 05:55:03;;;;;;;;;;;;;;;22.04;59.39;100882.53;5161892;28;19924;-85
2023/06/26 05:57:57;;;;;;;;;;;;;;;22.10;59.39;100883.91;5162734;28;19928;-85
2023/06/26 06:00:48;;;;;;;;;;;;;;;21.62;61.37;100880.16;5177339;28;19913;-85
2023/06/26 06:03:39;;;;;;;;;;;;;;;21.70;61.10;100883.13;5161607;28;20231;-85
2023/06/26 06:06:30;;;;;;;;;;;;;;;21.68;61.21;100885.06;5175152;28;19917;-86
2023/06/26 06:09:21;;;;;;;;;;;;;;;21.67;61.44;100886.03;5148862;28;19980;-85
2023/06/26 06:12:11;;;;;;;;;;;;;;;21.71;61.05;100894.69;5149242;28;19918;-85
2023/06/26 06:15:02;;;;;;;;;;;;;;;21.85;61.00;100896.38;5161633;28;19945;-85
2023/06/26 06:17:53;;;;;;;;;;;;;;;21.47;62.00;100903.44;5161297;28;19968;-84
2023/06/26 06:20:43;;;;;;;;;;;;;;;21.47;61.96;100902.56;5150109;28;20715;-85
2023/06/26 06:23:34;;;;;;;;;;;;;;;21.69;61.55;100918.81;5172148;28;19922;-86
2023/06/26 06:26:25;;;;;;;;;;;;;;;21.34;63.13;100916.78;5165191;28;19944;-86
2023/06/26 06:29:15;;;;;;;;;;;;;;;21.69;61.56;100918.81;5152376;28;20412;-85
2023/06/26 06:32:06;;;;;;;;;;;;;;;21.64;62.52;100920.94;5174125;28;19921;-86
2023/06/26 06:34:57;;;;;;;;;;;;;;;21.87;61.06;100926.47;5149149;28;19952;-85
2023/06/26 06:37:48;;;;;;;;;;;;;;;22.04;60.48;100922.59;5151765;28;19921;-86
2023/06/26 06:40:39;;;;;;;;;;;;;;;21.81;61.79;100929.56;5186580;28;19910;-87
2023/06/26 06:43:30;;;;;;;;;;;;;;;21.74;62.02;100939.84;5186895;28;19941;-87
2023/06/26 06:46:20;;;;;;;;;;;;;;;22.09;60.29;100943.63;5177308;28;19922;-85
2023/06/26 06:49:11;;;;;;;;;;;;;;;21.95;60.57;100956.16;5165733;28;19913;-85
2023/06/26 06:52:02;;;;;;;;;;;;;;;22.12;60.64;100962.09;5144393;28;20464;-85
2023/06/26 06:54:58;;;;;;;;;;;;;;;22.12;60.23;100968.31;5145803;28;19956;-85
2023/06/26 06:57:50;;;;;;;;;;;;;;;21.92;61.94;100966.19;5143875;28;19944;-85
2023/06/26 07:00:40;;;;;;;;;;;;;;;21.86;61.96;100964.81;5146435;28;19914;-85
2023/06/26 07:03:31;;;;;;;;;;;;;;;22.17;60.40;100967.97;5133609;28;19921;-86
2023/06/26 07:06:22;;;;;;;;;;;;;;;22.22;60.26;100967.66;5159840;28;19972;-85
2023/06/26 07:09:12;;;;;;;;;;;;;;;22.17;61.66;100962.63;5157793;28;19966;-85
2023/06/26 07:12:03;;;;;;;;;;;;;;;22.21;60.91;100971.28;5159766;28;19913;-85
2023/06/26 07:14:55;;;;;;;;;;;;;;;22.24;60.61;100971.91;5143483;28;19949;-85
2023/06/26 07:17:46;;;;;;;;;;;;;;;22.25;60.72;100975.44;5174572;28;20686;-87
2023/06/26 07:20:36;;;;;;;;;;;;;;;22.30;59.89;100968.78;5162609;28;19914;-85
2023/06/26 07:23:27;;;;;;;;;;;;;;;22.31;60.34;100962.47;5163724;28;19918;-85
2023/06/26 07:26:18;;;;;;;;;;;;;;;22.31;60.40;100972.34;5148300;28;19918;-85
2023/06/26 07:29:08;;;;;;;;;;;;;;;22.25;60.35;100973.63;5163235;28;19917;-86
2023/06/26 07:31:59;;;;;;;;;;;;;;;22.08;60.98;100964.13;5144314;28;19953;-85
2023/06/26 07:34:50;;;;;;;;;;;;;;;22.35;60.17;100972.97;5153868;28;20127;-85
2023/06/26 07:37:41;;;;;;;;;;;;;;;22.42;59.57;100979.59;5160230;28;19933;-85
2023/06/26 07:40:31;;;;;;;;;;;;;;;22.23;61.02;100978.22;5157203;28;19949;-84
2023/06/26 07:43:23;;;;;;;;;;;;;;;22.29;60.79;100991.13;5160166;28;19922;-86
2023/06/26 07:46:14;;;;;;;;;;;;;;;22.25;61.42;100996.81;5172822;28;19924;-87
2023/06/26 07:49:04;;;;;;;;;;;;;;;22.32;60.98;101001.59;5179416;28;19922;-86
2023/06/26 07:51:55;;;;;;;;;;;;;;;22.43;60.17;100997.34;5153728;28;20016;-86
2023/06/26 07:54:46;;;;;;;;;;;;;;;22.51;59.67;100997.63;5147765;28;19913;-85
2023/06/26 07:57:36;;;;;;;;;;;;;;;22.42;60.08;100998.31;5154092;28;19994;-86
2023/06/26 08:00:28;;;;;;;;;;;;;;;22.63;58.90;101004.75;5177500;28;20329;-86
2023/06/26 08:03:19;;;;;;;;;;;;;;;22.78;58.87;101012.59;5160026;28;19922;-87
2023/06/26 08:06:10;;;;;;;;;;;;;;;22.50;59.16;101011.09;5162724;28;20037;-84
2023/06/26 08:09:03;;;;;;;;;;;;;;;22.13;60.36;101014.56;5163706;28;19972;-85
2023/06/26 08:11:53;;;;;;;;;;;;;;;22.52;59.12;101023.38;5162094;28;20044;-85
2023/06/26 08:14:44;;;;;;;;;;;;;;;22.66;58.19;101021.53;5162235;28;19920;-86
2023/06/26 08:17:35;;;;;;;;;;;;;;;22.47;58.88;101026.41;5125058;28;20414;-86
2023/06/26 08:20:26;;;;;;;;;;;;;;;22.32;59.53;101032.81;5151015;28;20401;-86
2023/06/26 08:23:17;;;;;;;;;;;;;;;22.44;58.70;101031.97;5162940;28;19940;-86
2023/06/26 08:26:08;;;;;;;;;;;;;;;22.61;57.86;101032.56;5162715;28;19917;-84
2023/06/26 08:28:58;;;;;;;;;;;;;;;22.45;58.59;101033.69;5162776;28;19925;-85
2023/06/26 08:31:49;;;;;;;;;;;;;;;22.61;57.87;101041.44;5145462;28;20186;-86
2023/06/26 08:34:40;;;;;;;;;;;;;;;22.66;57.85;101041.09;5159409;28;19914;-85
2023/06/26 08:37:32;;;;;;;;;;;;;;;22.78;57.95;101039.34;5160750;28;19941;-85
2023/06/26 08:40:23;;;;;;;;;;;;;;;22.58;58.13;101055.03;5163761;28;19913;-86
2023/06/26 08:43:14;;;;;;;;;;;;;;;22.57;58.37;101052.47;5162553;28;19984;-86
2023/06/26 08:46:04;;;;;;;;;;;;;;;22.55;58.55;101054.41;5163875;28;19918;-85
2023/06/26 08:48:56;;;;;;;;;;;;;;;22.71;58.06;101057.69;5162273;28;19941;-85
2023/06/26 08:51:59;;;;;;;;;;;;;;;22.70;57.98;101052.41;5146253;28;20225;-85
2023/06/26 08:54:54;;;;;;;;;;;;;;;22.69;57.52;101062.28;5148388;28;20224;-86
2023/06/26 08:57:45;;;;;;;;;;;;;;;22.68;57.63;101062.41;5161635;28;19945;-85
2023/06/26 09:00:36;;;;;;;;;;;;;;;22.78;57.69;101060.72;5180815;28;19906;-85
2023/06/26 09:03:27;;;;;;;;;;;;;;;22.71;58.35;101060.34;5184299;28;19998;-87
2023/06/26 09:06:18;;;;;;;;;;;;;;;22.79;57.89;101071.34;5183697;28;19970;-86
2023/06/26 09:09:10;;;;;;;;;;;;;;;22.69;57.45;101061.41;5162036;28;19914;-86
2023/06/26 09:12:04;;;;;;;;;;;;;;;22.57;57.42;101058.69;5167182;28;20073;-85
2023/06/26 09:14:56;;;;;;;;;;;;;;;22.74;57.00;101060.09;5162251;28;19960;-85
2023/06/26 09:17:48;;;;;;;;;;;;;;;22.81;56.74;101049.81;5177849;28;19926;-85
2023/06/26 09:20:38;;;;;;;;;;;;;;;22.94;56.35;101061.31;5150530;28;19919;-84
2023/06/26 09:23:29;;;;;;;;;;;;;;;22.69;56.22;101061.41;5176236;28;20005;-85
2023/06/26 09:26:22;;;;;;;;;;;;;;;22.74;56.44;101061.94;5178216;28;20052;-85
2023/06/26 09:29:13;;;;;;;;;;;;;;;22.87;55.85;101059.22;5165580;28;19933;-85
2023/06/26 09:32:04;;;;;;;;;;;;;;;22.71;56.02;101068.38;5161725;28;20012;-85
2023/06/26 09:35:00;;;;;;;;;;;;;;;22.77;56.04;101065.25;5189880;28;19906;-87
2023/06/26 09:37:51;;;;;;;;;;;;;;;23.00;55.49;101072.53;5189012;28;20027;-86
2023/06/26 09:40:41;;;;;;;;;;;;;;;22.86;54.74;101069.03;5165250;28;19921;-86
2023/06/26 09:43:32;;;;;;;;;;;;;;;22.79;55.21;101073.16;5159720;28;20342;-85
2023/06/26 09:46:27;;;;;;;;;;;;;;;22.95;54.74;101068.38;5161853;28;19995;-86
2023/06/26 09:49:18;;;;;;;;;;;;;;;23.06;54.53;101064.06;5160371;28;19917;-85
2023/06/26 09:52:08;;;;;;;;;;;;;;;23.03;54.29;101080.31;5162827;28;20025;-85
2023/06/26 09:55:08;;;;;;;;;;;;;;;23.16;53.99;101085.63;5161452;28;19921;-85
2023/06/26 09:58:00;;;;;;;;;;;;;;;23.11;54.44;101088.63;5163083;28;20113;-86
2023/06/26 10:00:51;;;;;;;;;;;;;;;23.13;54.21;101089.38;5177224;28;19965;-87
2023/06/26 10:03:42;;;;;;;;;;;;;;;23.13;53.94;101081.34;5159548;28;19925;-85
2023/06/26 10:06:35;;;;;;;;;;;;;;;23.16;54.03;101089.16;5159380;28;19921;-85
2023/06/26 10:09:27;;;;;;;;;;;;;;;23.27;53.83;101094.59;5164751;28;19964;-86
2023/06/26 10:12:19;;;;;;;;;;;;;;;23.34;52.62;101089.63;5174205;28;20359;-85
2023/06/26 10:15:12;;;;;;;;;;;;;;;23.30;53.10;101092.66;5159249;28;19922;-86
2023/06/26 10:18:03;;;;;;;;;;;;;;;23.35;52.95;101096.69;5142208;28;19964;-86
2023/06/26 10:20:55;;;;;;;;;;;;;;;23.24;52.23;101093.97;5159481;28;19914;-86
2023/06/26 10:23:46;;;;;;;;;;;;;;;23.45;52.01;101096.84;5162596;28;19922;-86
2023/06/26 10:26:40;;;;;;;;;;;;;;;23.33;50.85;101090.59;5143034;28;19914;-85
2023/06/26 10:29:32;;;;;;;;;;;;;;;23.47;51.42;101097.59;5162496;28;19909;-85
2023/06/26 10:32:24;;;;;;;;;;;;;;;23.56;51.36;101098.69;5161324;28;19960;-86
2023/06/26 10:35:15;;;;;;;;;;;;;;;23.52;50.49;101092.72;5174179;28;19925;-85
2023/06/26 10:38:06;;;;;;;;;;;;;;;23.58;49.62;101102.13;5150046;28;19920;-86
2023/06/26 10:41:09;;;;;;;;;;;;;;;23.60;49.50;101091.28;5149693;28;19909;-86
2023/06/26 10:44:07;;;;;;;;;;;;;;;23.49;49.37;101086.75;5161362;28;19985;-86
2023/06/26 10:46:58;;;;;;;;;;;;;;;23.71;48.55;101089.50;5163225;28;19918;-86
2023/06/26 10:49:49;;;;;;;;;;;;;;;23.77;48.71;101088.16;5180959;28;19914;-85
2023/06/26 10:52:39;;;;;;;;;;;;;;;23.84;48.16;101081.34;5162115;28;19968;-85
2023/06/26 10:55:30;;;;;;;;;;;;;;;23.94;48.86;101083.34;5148227;28;20009;-86
2023/06/26 10:58:28;;;;;;;;;;;;;;;23.80;47.93;101113.88;5156629;28;19917;-85
2023/06/26 11:01:21;;;;;;;;;;;;;;;23.79;47.26;101113.00;5152470;28;19922;-86
2023/06/26 11:04:14;;;;;;;;;;;;;;;23.80;47.63;101112.03;5162842;28;20346;-85
2023/06/26 11:07:16;;;;;;;;;;;;;;;24.03;48.11;101110.31;5154598;28;19929;-85
2023/06/26 11:10:10;;;;;;;;;;;;;;;23.94;43.92;101116.38;5149136;28;20234;-85
2023/06/26 11:13:02;;;;;;;;;;;;;;;23.98;44.08;101111.63;5144161;28;20326;-86
2023/06/26 11:15:56;;;;;;;;;;;;;;;23.99;43.23;101110.66;5146374;28;20406;-85
2023/06/26 11:18:47;;;;;;;;;;;;;;;24.11;44.36;101104.31;5158643;28;19917;-85
2023/06/26 11:21:38;;;;;;;;;;;;;;;24.26;44.59;101110.31;5176374;28;19910;-86
2023/06/26 11:24:29;;;;;;;;;;;;;;;24.45;45.62;101116.91;5162875;28;19926;-86
2023/06/26 11:27:23;;;;;;;;;;;;;;;24.41;44.88;101116.28;5180193;28;20086;-84
2023/06/26 11:30:24;;;;;;;;;;;;;;;24.47;45.01;101126.53;5176109;28;20100;-84
2023/06/26 11:33:14;;;;;;;;;;;;;;;24.41;44.10;101127.03;5164749;28;19921;-84
2023/06/26 11:36:08;;;;;;;;;;;;;;;24.39;44.89;101123.59;5167023;28;19949;-84
2023/06/26 11:39:00;;;;;;;;;;;;;;;24.45;45.28;101127.63;5178739;28;20551;-85
2023/06/26 11:41:51;;;;;;;;;;;;;;;24.29;43.38;101127.97;5183015;28;20049;-85
2023/06/26 11:44:45;;;;;;;;;;;;;;;24.46;43.49;101118.59;5166879;28;20008;-85
2023/06/26 11:47:38;;;;;;;;;;;;;;;24.62;44.30;101128.94;5165877;28;19921;-85
2023/06/26 11:50:29;;;;;;;;;;;;;;;24.57;43.81;101133.84;5184294;28;19909;-85
2023/06/26 11:53:20;;;;;;;;;;;;;;;24.62;44.22;101139.69;5165123;28;19918;-84
2023/06/26 11:56:12;;;;;;;;;;;;;;;24.46;41.77;101151.63;5142438;28;19967;-85
2023/06/26 11:59:07;;;;;;;;;;;;;;;24.44;40.96;101136.63;5186728;28;19914;-85
2023/06/26 12:01:57;;;;;;;;;;;;;;;24.56;41.99;101146.38;5187630;28;19914;-86
2023/06/26 12:04:48;;;;;;;;;;;;;;;24.79;42.20;101144.56;5172895;28;19932;-85
2023/06/26 12:07:40;;;;;;;;;;;;;;;24.78;40.98;101145.53;5157215;28;19927;-84
2023/06/26 12:10:31;;;;;;;;;;;;;;;24.82;40.08;101149.69;5184879;28;19916;-85
2023/06/26 12:13:22;;;;;;;;;;;;;;;24.88;40.71;101139.44;5166440;28;19924;-87
2023/06/26 12:16:14;;;;;;;;;;;;;;;24.61;39.35;101154.06;5162667;28;19926;-87
2023/06/26 12:19:06;;;;;;;;;;;;;;;24.79;39.93;101163.34;5162009;28;19938;-86
2023/06/26 12:21:58;;;;;;;;;;;;;;;24.91;39.17;101166.88;5169576;28;19921;-89
2023/06/26 12:24:48;;;;;;;;;;;;;;;24.89;38.90;101174.19;5156042;28;19975;-91
2023/06/26 12:27:39;;;;;;;;;;;;;;;24.85;38.04;101166.50;5142179;28;19922;-90
2023/06/26 12:30:30;;;;;;;;;;;;;;;24.98;38.49;101183.34;5176103;28;19910;-90
2023/06/26 12:33:21;;;;;;;;;;;;;;;24.71;38.69;101183.75;5148834;28;19914;-89
2023/06/26 12:36:12;;;;;;;;;;;;;;;24.40;38.64;101194.16;5166373;28;19914;-90
2023/06/26 12:39:03;;;;;;;;;;;;;;;24.31;37.55;101185.03;5165243;28;19964;-90
2023/06/26 12:42:02;;;;;;;;;;;;;;;24.38;37.91;101213.06;5156071;28;19928;-89
2023/06/26 12:44:56;;;;;;;;;;;;;;;24.70;37.64;101196.28;5147499;28;19921;-90
2023/06/26 12:47:46;;;;;;;;;;;;;;;24.49;36.43;101188.06;5168138;28;19914;-89
2023/06/26 12:50:43;;;;;;;;;;;;;;;24.44;36.81;101185.75;5144896;28;19910;-89
2023/06/26 12:53:33;;;;;;;;;;;;;;;24.66;36.23;101194.81;5163621;28;19917;-90
2023/06/26 12:56:24;;;;;;;;;;;;;;;25.08;36.96;101191.50;5158663;28;20005;-86
2023/06/26 12:59:14;;;;;;;;;;;;;;;25.29;35.36;101194.25;5188302;28;19918;-88
2023/06/26 13:02:06;;;;;;;;;;;;;;;24.99;34.77;101190.41;5165243;28;19921;-88
2023/06/26 13:04:56;;;;;;;;;;;;;;;25.36;34.89;101175.81;5162971;28;19945;-87
2023/06/26 13:07:47;;;;;;;;;;;;;;;25.62;34.78;101184.41;5168798;28;20310;-89
2023/06/26 13:10:39;;;;;;;;;;;;;;;25.40;33.83;101188.88;5144977;28;19948;-89
2023/06/26 13:13:30;;;;;;;;;;;;;;;25.24;32.54;101191.09;5166074;28;20288;-89
2023/06/26 13:16:21;;;;;;;;;;;;;;;25.30;33.33;101187.91;5154550;28;19913;-89
2023/06/26 13:19:12;;;;;;;;;;;;;;;25.32;33.19;101191.31;5150853;28;19977;-89
2023/06/26 13:22:02;;;;;;;;;;;;;;;25.48;32.54;101190.09;5164971;28;19920;-89
2023/06/26 13:24:53;;;;;;;;;;;;;;;25.61;31.79;101185.38;5171267;28;19976;-89
2023/06/26 13:27:44;;;;;;;;;;;;;;;25.75;32.43;101198.50;5169533;28;19929;-88
2023/06/26 13:30:34;;;;;;;;;;;;;;;25.77;32.12;101198.38;5182525;28;19918;-90
2023/06/26 13:33:25;;;;;;;;;;;;;;;25.78;32.74;101202.78;5161984;28;19991;-89
2023/06/26 13:36:16;;;;;;;;;;;;;;;25.52;33.09;101188.84;5156843;28;19920;-90
2023/06/26 13:39:07;;;;;;;;;;;;;;;25.54;33.76;101192.25;5142271;28;19921;-92
2023/06/26 13:41:58;;;;;;;;;;;;;;;25.49;33.23;101195.31;5184151;28;19993;-88
2023/06/26 13:44:49;;;;;;;;;;;;;;;25.47;33.28;101188.38;5179087;28;19993;-89
2023/06/26 13:47:41;;;;;;;;;;;;;;;25.83;34.48;101187.13;5150216;28;19937;-85
2023/06/26 13:50:32;;;;;;;;;;;;;;;25.67;34.31;101194.75;5151481;28;20000;-91
2023/06/26 13:53:22;;;;;;;;;;;;;;;26.16;33.62;101200.50;5131172;28;20483;-89
2023/06/26 13:56:13;;;;;;;;;;;;;;;26.34;33.79;101203.47;5148561;28;19922;-89
2023/06/26 13:59:04;;;;;;;;;;;;;;;26.38;33.80;101199.50;5132333;28;20295;-88
2023/06/26 14:01:55;;;;;;;;;;;;;;;26.56;32.54;101191.69;5147777;28;19924;-89
2023/06/26 14:04:45;;;;;;;;;;;;;;;26.35;32.91;101187.19;5164555;28;19917;-89
2023/06/26 14:07:38;;;;;;;;;;;;;;;26.06;32.72;101197.72;5137757;28;19996;-89
2023/06/26 14:10:28;;;;;;;;;;;;;;;25.95;32.82;101205.88;5152828;28;20367;-89
2023/06/26 14:13:19;;;;;;;;;;;;;;;26.34;33.20;101215.06;5149133;28;19960;-90
2023/06/26 14:16:10;;;;;;;;;;;;;;;25.85;32.44;101213.84;5148275;28;20403;-86
2023/06/26 14:19:01;;;;;;;;;;;;;;;26.22;32.78;101216.13;5160989;28;19913;-89
2023/06/26 14:21:52;;;;;;;;;;;;;;;26.39;32.09;101214.66;5142623;28;19998;-90
2023/06/26 14:24:43;;;;;;;;;;;;;;;26.32;31.15;101211.66;5155325;28;20146;-90
2023/06/26 14:27:33;;;;;;;;;;;;;;;26.37;32.09;101206.75;5162364;28;19925;-89
2023/06/26 14:30:24;;;;;;;;;;;;;;;26.59;31.97;101221.00;5160531;28;19920;-89
2023/06/26 14:33:15;;;;;;;;;;;;;;;26.74;31.35;101217.94;5156794;28;20242;-89
2023/06/26 14:36:06;;;;;;;;;;;;;;;26.80;31.36;101225.53;5144656;28;19924;-87
2023/06/26 14:38:56;;;;;;;;;;;;;;;26.37;32.32;101220.19;5162890;28;20432;-87